createdAt,value
2018-05-07T00:00:55.739Z,1.90
2018-05-07T00:03:26.496Z,1.63
2018-05-07T00:05:57.381Z,1.87
2018-05-07T00:08:28.263Z,2.03
2018-05-07T00:10:59.063Z,1.93
2018-05-07T00:13:29.846Z,1.50
2018-05-07T00:16:00.660Z,1.83
2018-05-07T00:18:31.452Z,1.60
2018-05-07T00:21:02.232Z,1.90
2018-05-07T00:23:33.003Z,1.63
2018-05-07T00:26:03.815Z,2.17
2018-05-07T00:28:34.584Z,1.67
2018-05-07T00:31:05.367Z,1.60
2018-05-07T00:33:36.152Z,1.60
2018-05-07T00:36:06.933Z,1.80
2018-05-07T00:38:37.716Z,1.73
2018-05-07T00:41:08.516Z,1.40
2018-05-07T00:43:39.284Z,1.60
2018-05-07T00:46:10.082Z,2.00
2018-05-07T00:48:40.835Z,2.17
2018-05-07T00:51:18.668Z,1.97
2018-05-07T00:53:49.448Z,2.08
2018-05-07T00:56:20.263Z,1.70
2018-05-07T00:58:51.012Z,1.80
2018-05-07T01:01:21.812Z,1.70
2018-05-07T01:03:52.576Z,1.80
2018-05-07T01:06:23.349Z,1.90
2018-05-07T01:08:54.109Z,1.63
2018-05-07T01:11:24.891Z,2.00
2018-05-07T01:13:55.670Z,1.80
2018-05-07T01:16:26.435Z,2.13
2018-05-07T01:18:57.208Z,2.03
2018-05-07T01:21:35.667Z,1.90
2018-05-07T01:24:06.447Z,1.85
2018-05-07T01:26:37.241Z,1.80
2018-05-07T01:29:07.999Z,1.70
2018-05-07T01:31:38.793Z,1.90
2018-05-07T01:34:09.549Z,2.33
2018-05-07T01:36:40.329Z,2.03
2018-05-07T01:39:11.105Z,2.03
2018-05-07T01:41:41.868Z,2.00
2018-05-07T01:44:12.656Z,2.20
2018-05-07T01:46:43.500Z,1.90
2018-05-07T01:49:14.266Z,2.13
2018-05-07T01:51:45.048Z,2.40
2018-05-07T01:54:15.817Z,2.07
2018-05-07T01:56:46.601Z,1.73
2018-05-07T01:59:17.411Z,1.57
2018-05-07T02:01:48.183Z,1.73
2018-05-07T02:04:18.975Z,1.93
2018-05-07T02:06:49.779Z,2.00
2018-05-07T02:09:20.567Z,2.00
2018-05-07T02:11:53.036Z,2.00
2018-05-07T02:14:23.823Z,2.20
2018-05-07T02:16:54.595Z,2.17
2018-05-07T02:19:25.369Z,2.07
2018-05-07T02:21:56.143Z,2.30
2018-05-07T02:24:26.916Z,2.13
2018-05-07T02:26:58.368Z,2.30
2018-05-07T02:29:29.161Z,2.30
2018-05-07T02:31:59.936Z,2.27
2018-05-07T02:34:30.708Z,2.10
2018-05-07T02:37:01.496Z,2.13
2018-05-07T02:39:32.268Z,2.20
2018-05-07T02:42:03.090Z,2.23
2018-05-07T02:44:33.880Z,2.33
2018-05-07T02:47:04.675Z,1.90
2018-05-07T02:49:35.454Z,2.20
2018-05-07T02:52:06.743Z,2.20
2018-05-07T02:54:37.526Z,2.40
2018-05-07T02:57:08.364Z,2.80
2018-05-07T02:59:39.207Z,2.33
2018-05-07T03:02:10.015Z,2.60
2018-05-07T03:04:40.814Z,2.40
2018-05-07T03:07:11.668Z,2.10
2018-05-07T03:09:42.448Z,2.43
2018-05-07T03:12:13.312Z,2.20
2018-05-07T03:14:44.047Z,2.33
2018-05-07T03:17:14.848Z,2.13
2018-05-07T03:19:45.616Z,1.90
2018-05-07T03:22:16.386Z,2.40
2018-05-07T03:24:47.217Z,2.30
2018-05-07T03:27:18.031Z,2.30
2018-05-07T03:29:48.799Z,1.97
2018-05-07T03:32:19.582Z,2.30
2018-05-07T03:34:50.368Z,2.17
2018-05-07T03:37:21.143Z,2.53
2018-05-07T03:39:51.920Z,2.33
2018-05-07T03:42:22.692Z,2.27
2018-05-07T03:44:53.472Z,2.60
2018-05-07T03:47:24.268Z,2.50
2018-05-07T03:49:55.031Z,2.47
2018-05-07T03:52:25.801Z,2.63
2018-05-07T03:54:56.556Z,2.40
2018-05-07T03:57:27.327Z,2.90
2018-05-07T03:59:58.104Z,2.70
2018-05-07T04:02:28.881Z,2.77
2018-05-07T04:04:59.632Z,2.37
2018-05-07T04:07:30.429Z,2.70
2018-05-07T04:10:01.200Z,2.70
2018-05-07T04:12:32.048Z,2.70
2018-05-07T04:15:02.833Z,2.50
2018-05-07T04:17:45.976Z,2.33
2018-05-07T04:20:29.124Z,2.45
2018-05-07T04:23:12.353Z,2.60
2018-05-07T04:25:43.139Z,2.75
2018-05-07T04:28:13.920Z,2.60
2018-05-07T04:30:44.667Z,3.00
2018-05-07T04:33:15.443Z,2.60
2018-05-07T04:35:46.200Z,2.90
2018-05-07T04:38:16.976Z,2.67
2018-05-07T04:40:47.725Z,2.90
2018-05-07T04:43:18.557Z,2.63
2018-05-07T04:45:49.287Z,2.70
2018-05-07T04:48:20.071Z,2.50
2018-05-07T04:50:50.828Z,2.77
2018-05-07T04:53:21.596Z,2.50
2018-05-07T04:55:52.369Z,2.60
2018-05-07T04:58:23.151Z,2.67
2018-05-07T05:00:53.923Z,2.23
2018-05-07T05:03:24.720Z,2.27
2018-05-07T05:05:55.499Z,3.20
2018-05-07T05:08:26.324Z,2.30
2018-05-07T05:10:57.071Z,2.47
2018-05-07T05:13:27.828Z,2.90
2018-05-07T05:15:58.600Z,2.40
2018-05-07T05:18:29.387Z,3.17
2018-05-07T05:21:00.157Z,2.63
2018-05-07T05:23:30.958Z,2.67
2018-05-07T05:26:01.718Z,2.50
2018-05-07T05:28:32.509Z,2.53
2018-05-07T05:31:03.296Z,2.57
2018-05-07T05:33:34.077Z,2.73
2018-05-07T05:36:04.835Z,3.00
2018-05-07T05:38:35.636Z,3.00
2018-05-07T05:41:06.404Z,3.00
2018-05-07T05:43:37.272Z,2.43
2018-05-07T05:46:07.951Z,2.80
2018-05-07T05:48:38.743Z,2.40
2018-05-07T05:51:09.515Z,2.57
2018-05-07T05:53:40.295Z,2.67
2018-05-07T05:56:11.164Z,2.20
2018-05-07T05:58:41.923Z,2.43
2018-05-07T06:01:12.709Z,3.10
2018-05-07T06:03:43.549Z,2.73
2018-05-07T06:06:14.276Z,2.60
2018-05-07T06:08:45.101Z,3.10
2018-05-07T06:11:15.886Z,3.43
2018-05-07T06:13:46.683Z,2.90
2018-05-07T06:16:17.451Z,2.30
2018-05-07T06:18:48.255Z,2.90
2018-05-07T06:21:19.007Z,2.70
2018-05-07T06:23:49.816Z,2.40
2018-05-07T06:26:20.579Z,2.70
2018-05-07T06:28:51.379Z,2.40
2018-05-07T06:31:22.132Z,2.33
2018-05-07T06:33:52.925Z,2.43
2018-05-07T06:36:23.722Z,2.70
2018-05-07T06:38:54.516Z,2.27
2018-05-07T06:41:25.280Z,2.73
2018-05-07T06:43:56.049Z,2.60
2018-05-07T06:46:26.824Z,2.47
2018-05-07T06:48:57.631Z,2.60
2018-05-07T06:51:28.498Z,2.93
2018-05-07T06:53:59.223Z,2.60
2018-05-07T06:56:30.009Z,2.63
2018-05-07T06:59:00.807Z,2.53
2018-05-07T07:01:31.590Z,2.60
2018-05-07T07:04:02.388Z,2.90
2018-05-07T07:06:33.155Z,2.40
2018-05-07T07:09:05.025Z,2.60
2018-05-07T07:11:35.811Z,2.60
2018-05-07T07:14:06.624Z,2.50
2018-05-07T07:16:37.411Z,2.23
2018-05-07T07:19:08.199Z,2.60
2018-05-07T07:21:38.993Z,2.63
2018-05-07T07:24:09.793Z,2.87
2018-05-07T07:26:40.564Z,2.80
2018-05-07T07:29:11.357Z,2.97
2018-05-07T07:31:42.136Z,2.63
2018-05-07T07:34:12.949Z,2.40
2018-05-07T07:36:43.719Z,2.53
2018-05-07T07:39:14.495Z,2.67
2018-05-07T07:41:45.305Z,2.40
2018-05-07T07:44:16.120Z,2.30
2018-05-07T07:46:46.911Z,2.70
2018-05-07T07:49:17.695Z,2.23
2018-05-07T07:51:48.463Z,2.93
2018-05-07T07:54:19.253Z,2.73
2018-05-07T07:56:50.031Z,2.40
2018-05-07T07:59:20.838Z,2.30
2018-05-07T08:01:51.604Z,3.00
2018-05-07T08:04:22.400Z,2.63
2018-05-07T08:06:53.193Z,2.70
2018-05-07T08:09:23.989Z,2.80
2018-05-07T08:11:54.756Z,2.13
2018-05-07T08:14:25.585Z,2.73
2018-05-07T08:16:56.339Z,3.50
2018-05-07T08:19:27.141Z,2.70
2018-05-07T08:21:57.936Z,3.70
2018-05-07T08:24:28.718Z,2.90
2018-05-07T08:26:59.471Z,2.53
2018-05-07T08:29:30.303Z,2.20
2018-05-07T08:32:01.071Z,2.30
2018-05-07T08:34:31.860Z,2.70
2018-05-07T08:37:02.664Z,2.40
2018-05-07T08:39:33.453Z,2.70
2018-05-07T08:42:04.229Z,2.90
2018-05-07T08:44:35.036Z,2.20
2018-05-07T08:47:05.856Z,2.70
2018-05-07T08:49:36.659Z,2.40
2018-05-07T08:52:07.436Z,2.13
2018-05-07T08:54:38.217Z,2.67
2018-05-07T08:57:09.011Z,2.70
2018-05-07T08:59:39.815Z,2.60
2018-05-07T09:02:10.622Z,1.93
2018-05-07T09:04:41.388Z,2.40
2018-05-07T09:07:12.188Z,2.13
2018-05-07T09:09:42.962Z,2.20
2018-05-07T09:12:13.759Z,2.10
2018-05-07T09:14:44.540Z,2.67
2018-05-07T09:17:15.311Z,2.00
2018-05-07T09:19:46.103Z,2.10
2018-05-07T09:22:16.880Z,2.70
2018-05-07T09:24:47.763Z,2.17
2018-05-07T09:27:18.490Z,2.43
2018-05-07T09:29:49.263Z,2.23
2018-05-07T09:32:20.033Z,2.50
2018-05-07T09:34:50.832Z,2.40
2018-05-07T09:37:21.616Z,2.70
2018-05-07T09:39:52.416Z,2.10
2018-05-07T09:42:23.187Z,2.23
2018-05-07T09:44:53.997Z,2.23
2018-05-07T09:47:24.784Z,2.30
2018-05-07T09:49:55.588Z,2.37
2018-05-07T09:52:26.367Z,2.13
2018-05-07T09:54:57.184Z,3.10
2018-05-07T09:57:27.963Z,2.27
2018-05-07T09:59:58.777Z,2.47
2018-05-07T10:02:29.667Z,2.77
2018-05-07T10:05:00.507Z,2.70
2018-05-07T10:07:31.367Z,2.20
2018-05-07T10:10:02.232Z,2.30
2018-05-07T10:12:32.987Z,2.37
2018-05-07T10:15:03.796Z,2.00
2018-05-07T10:17:34.572Z,2.50
2018-05-07T10:20:12.473Z,2.63
2018-05-07T10:22:43.272Z,2.03
2018-05-07T10:25:14.070Z,2.30
2018-05-07T10:27:44.837Z,2.17
2018-05-07T10:30:15.631Z,2.10
2018-05-07T10:32:46.412Z,2.20
2018-05-07T10:35:17.292Z,2.30
2018-05-07T10:37:47.994Z,2.37
2018-05-07T10:40:18.857Z,2.20
2018-05-07T10:42:49.730Z,3.00
2018-05-07T10:45:20.491Z,2.50
2018-05-07T10:47:51.255Z,2.30
2018-05-07T10:50:22.103Z,2.30
2018-05-07T10:52:52.858Z,2.30
2018-05-07T10:55:23.661Z,2.83
2018-05-07T10:57:54.429Z,2.40
2018-05-07T11:00:25.220Z,2.20
2018-05-07T11:02:55.987Z,2.33
2018-05-07T11:05:26.851Z,3.27
2018-05-07T11:07:57.632Z,2.33
2018-05-07T11:10:28.448Z,1.87
2018-05-07T11:12:59.223Z,2.23
2018-05-07T11:15:30.026Z,1.73
2018-05-07T11:18:00.803Z,2.20
2018-05-07T11:20:31.593Z,2.00
2018-05-07T11:23:02.379Z,3.07
2018-05-07T11:25:33.167Z,2.40
2018-05-07T11:28:03.937Z,2.43
2018-05-07T11:30:34.704Z,2.20
2018-05-07T11:33:05.477Z,2.30
2018-05-07T11:35:36.292Z,2.00
2018-05-07T11:38:07.061Z,2.20
2018-05-07T11:40:37.851Z,1.97
2018-05-07T11:43:08.610Z,2.03
2018-05-07T11:45:39.400Z,2.53
2018-05-07T11:48:10.218Z,2.30
2018-05-07T11:50:41.014Z,1.83
2018-05-07T11:53:11.781Z,2.13
2018-05-07T11:55:42.563Z,2.13
2018-05-07T11:58:13.374Z,2.13
2018-05-07T12:00:44.171Z,1.90
2018-05-07T12:03:14.939Z,2.17
2018-05-07T12:05:45.747Z,2.17
2018-05-07T12:08:16.726Z,2.13
2018-05-07T12:10:47.527Z,2.30
2018-05-07T12:13:18.306Z,2.70
2018-05-07T12:15:49.402Z,2.20
2018-05-07T12:18:20.147Z,2.20
2018-05-07T12:20:50.943Z,1.93
2018-05-07T12:23:21.793Z,2.20
2018-05-07T12:25:52.502Z,2.37
2018-05-07T12:28:23.255Z,1.73
2018-05-07T12:30:54.027Z,1.70
2018-05-07T12:33:24.776Z,2.10
2018-05-07T12:35:55.548Z,2.20
2018-05-07T12:38:26.317Z,1.97
2018-05-07T12:40:57.113Z,2.23
2018-05-07T12:43:27.881Z,2.00
2018-05-07T12:45:58.662Z,1.80
2018-05-07T12:48:29.428Z,1.90
2018-05-07T12:51:00.203Z,2.43
2018-05-07T12:53:30.963Z,1.90
2018-05-07T12:56:02.250Z,2.23
2018-05-07T12:58:33.165Z,2.40
2018-05-07T13:01:03.940Z,2.37
2018-05-07T13:03:34.707Z,2.20
2018-05-07T13:06:05.524Z,2.10
2018-05-07T13:08:36.332Z,2.30
2018-05-07T13:11:07.119Z,1.70
2018-05-07T13:13:37.876Z,2.27
2018-05-07T13:16:08.647Z,1.70
2018-05-07T13:18:40.435Z,2.00
2018-05-07T13:21:11.960Z,1.90
2018-05-07T13:23:42.737Z,2.17
2018-05-07T13:26:13.531Z,1.70
2018-05-07T13:28:44.310Z,2.10
2018-05-07T13:31:16.727Z,2.13
2018-05-07T13:33:47.515Z,2.13
2018-05-07T13:36:18.311Z,2.00
2018-05-07T13:38:49.072Z,1.90
2018-05-07T13:41:19.849Z,2.00
2018-05-07T13:43:50.603Z,1.70
2018-05-07T13:46:21.377Z,1.90
2018-05-07T13:48:52.150Z,1.70
2018-05-07T13:51:22.934Z,1.90
2018-05-07T13:53:53.689Z,1.90
2018-05-07T13:56:24.520Z,2.00
2018-05-07T13:58:55.316Z,1.47
2018-05-07T14:01:26.120Z,1.60
2018-05-07T14:03:56.880Z,1.77
2018-05-07T14:06:27.666Z,1.70
2018-05-07T14:08:58.459Z,1.77
2018-05-07T14:11:29.276Z,1.70
2018-05-07T14:14:00.048Z,1.50
2018-05-07T14:16:30.831Z,1.73
2018-05-07T14:19:01.585Z,1.90
2018-05-07T14:21:32.375Z,1.63
2018-05-07T14:24:03.121Z,1.90
2018-05-07T14:26:33.914Z,1.63
2018-05-07T14:29:04.684Z,1.90
2018-05-07T14:31:35.507Z,1.50
2018-05-07T14:34:13.345Z,2.33
2018-05-07T14:36:44.125Z,1.70
2018-05-07T14:39:14.887Z,2.07
2018-05-07T14:41:45.672Z,1.80
2018-05-07T14:44:16.461Z,1.80
2018-05-07T14:46:47.264Z,1.90
2018-05-07T14:49:18.057Z,2.00
2018-05-07T14:51:48.844Z,2.20
2018-05-07T14:54:19.619Z,1.70
2018-05-07T14:56:50.405Z,1.90
2018-05-07T14:59:21.160Z,1.40
2018-05-07T15:01:52.684Z,1.90
2018-05-07T15:04:23.479Z,1.83
2018-05-07T15:06:54.292Z,1.80
2018-05-07T15:09:25.071Z,1.80
2018-05-07T15:11:55.981Z,1.23
2018-05-07T15:14:26.762Z,1.60
2018-05-07T15:16:57.551Z,1.63
2018-05-07T15:19:28.295Z,1.80
2018-05-07T15:21:59.074Z,2.00
2018-05-07T15:24:39.934Z,1.83
2018-05-07T15:27:10.742Z,1.83
2018-05-07T15:29:41.537Z,1.90
2018-05-07T15:32:12.333Z,1.57
2018-05-07T15:34:43.124Z,1.90
2018-05-07T15:37:13.937Z,1.70
2018-05-07T15:39:44.728Z,1.60
2018-05-07T15:42:15.535Z,1.60
2018-05-07T15:44:46.333Z,2.43
2018-05-07T15:47:17.135Z,1.60
2018-05-07T15:49:47.913Z,1.73
2018-05-07T15:52:18.711Z,1.40
2018-05-07T15:54:49.479Z,1.60
2018-05-07T15:57:20.305Z,1.60
2018-05-07T15:59:51.051Z,1.80
2018-05-07T16:02:22.821Z,1.80
2018-05-07T16:04:53.577Z,1.30
2018-05-07T16:07:25.148Z,1.83
2018-05-07T16:09:55.960Z,1.67
2018-05-07T16:12:26.729Z,1.40
2018-05-07T16:14:57.524Z,2.10
2018-05-07T16:17:28.344Z,2.17
2018-05-07T16:19:59.219Z,1.80
2018-05-07T16:22:29.891Z,1.70
2018-05-07T16:25:00.680Z,1.63
2018-05-07T16:27:31.510Z,1.70
2018-05-07T16:30:02.297Z,1.53
2018-05-07T16:32:33.158Z,1.60
2018-05-07T16:35:03.940Z,2.27
2018-05-07T16:37:34.763Z,1.90
2018-05-07T16:40:07.725Z,1.93
2018-05-07T16:42:38.627Z,2.00
2018-05-07T16:45:09.357Z,1.70
2018-05-07T16:47:40.156Z,1.67
2018-05-07T16:50:10.962Z,1.60
2018-05-07T16:52:41.785Z,1.83
2018-05-07T16:55:12.556Z,1.83
2018-05-07T16:57:43.352Z,1.70
2018-05-07T17:00:14.120Z,1.70
2018-05-07T17:02:44.887Z,1.80
2018-05-07T17:05:15.654Z,1.40
2018-05-07T17:07:46.456Z,1.63
2018-05-07T17:10:17.207Z,1.90
2018-05-07T17:12:48.008Z,1.80
2018-05-07T17:15:18.779Z,2.10
2018-05-07T17:17:49.594Z,1.80
2018-05-07T17:20:20.471Z,1.43
2018-05-07T17:22:51.272Z,1.80
2018-05-07T17:25:22.032Z,1.80
2018-05-07T17:27:58.819Z,2.10
2018-05-07T17:30:29.601Z,1.70
2018-05-07T17:33:00.413Z,2.07
2018-05-07T17:35:31.172Z,1.87
2018-05-07T17:38:01.961Z,2.00
2018-05-07T17:40:32.727Z,1.80
2018-05-07T17:43:03.585Z,1.70
2018-05-07T17:48:50.162Z,1.43
2018-05-07T17:51:20.934Z,1.80
2018-05-07T17:53:51.733Z,1.50
2018-05-07T17:56:22.488Z,1.80
2018-05-07T17:58:53.486Z,1.70
2018-05-07T18:01:24.257Z,1.70
2018-05-07T18:03:55.115Z,1.37
2018-05-07T18:06:26.037Z,1.53
2018-05-07T18:08:56.815Z,1.70
2018-05-07T18:11:27.601Z,1.50
2018-05-07T18:13:58.363Z,1.43
2018-05-07T18:16:29.120Z,1.67
2018-05-07T18:18:59.897Z,1.50
2018-05-07T18:21:30.665Z,2.20
2018-05-07T18:24:01.448Z,1.60
2018-05-07T18:26:32.250Z,1.97
2018-05-07T18:29:03.027Z,1.73
2018-05-07T18:31:33.785Z,1.90
2018-05-07T18:34:04.628Z,1.53
2018-05-07T18:36:35.415Z,1.50
2018-05-07T18:39:06.221Z,1.60
2018-05-07T18:41:37.004Z,1.77
2018-05-07T18:44:07.780Z,1.80
2018-05-07T18:46:38.587Z,1.80
2018-05-07T18:49:09.429Z,1.80
2018-05-07T18:51:40.210Z,1.60
2018-05-07T18:54:11.009Z,2.00
2018-05-07T18:56:41.827Z,1.50
2018-05-07T18:59:12.663Z,1.67
2018-05-07T19:01:43.439Z,2.20
2018-05-07T19:04:14.277Z,2.10
2018-05-07T19:06:45.072Z,1.50
2018-05-07T19:09:15.844Z,1.77
2018-05-07T19:11:46.616Z,1.57
2018-05-07T19:14:17.429Z,1.40
2018-05-07T19:16:48.232Z,1.60
2018-05-07T19:19:19.025Z,1.70
2018-05-07T19:21:49.903Z,2.00
2018-05-07T19:24:20.729Z,1.80
2018-05-07T19:26:51.571Z,1.63
2018-05-07T19:29:22.384Z,1.70
2018-05-07T19:31:53.154Z,1.80
2018-05-07T19:34:23.969Z,1.70
2018-05-07T19:36:54.799Z,1.80
2018-05-07T19:39:25.589Z,1.60
2018-05-07T19:41:56.348Z,2.30
2018-05-07T19:44:27.156Z,2.00
2018-05-07T19:46:57.939Z,1.60
2018-05-07T19:49:28.766Z,1.50
2018-05-07T19:51:59.520Z,1.70
2018-05-07T19:54:30.332Z,1.60
2018-05-07T19:57:01.110Z,2.03
2018-05-07T19:59:31.932Z,1.50
2018-05-07T20:02:02.725Z,2.37
2018-05-07T20:04:33.521Z,1.57
2018-05-07T20:07:04.290Z,1.60
2018-05-07T20:09:35.146Z,1.50
2018-05-07T20:12:05.952Z,1.53
2018-05-07T20:14:36.777Z,1.80
2018-05-07T20:17:07.643Z,1.67
2018-05-07T20:19:38.463Z,1.60
2018-05-07T20:22:09.821Z,1.60
2018-05-07T20:24:40.689Z,2.00
2018-05-07T20:27:11.508Z,1.40
2018-05-07T20:29:42.324Z,1.77
2018-05-07T20:32:13.124Z,1.47
2018-05-07T20:34:43.955Z,1.53
2018-05-07T20:37:14.754Z,2.00
2018-05-07T20:39:45.556Z,1.83
2018-05-07T20:42:16.324Z,1.60
2018-05-07T20:44:47.155Z,1.80
2018-05-07T20:47:17.961Z,1.70
2018-05-07T20:49:48.774Z,1.60
2018-05-07T20:52:19.556Z,1.80
2018-05-07T20:54:50.339Z,1.37
2018-05-07T20:57:21.118Z,1.90
2018-05-07T20:59:51.946Z,1.50
2018-05-07T21:02:22.705Z,1.77
2018-05-07T21:04:53.476Z,1.60
2018-05-07T21:07:31.121Z,1.57
2018-05-07T21:10:01.954Z,1.83
2018-05-07T21:12:32.734Z,1.70
2018-05-07T21:15:03.506Z,1.63
2018-05-07T21:17:34.313Z,1.67
2018-05-07T21:20:05.183Z,1.97
2018-05-07T21:22:35.995Z,1.63
2018-05-07T21:25:06.805Z,1.53
2018-05-07T21:27:37.623Z,1.43
2018-05-07T21:30:08.420Z,1.60
2018-05-07T21:32:39.212Z,2.00
2018-05-07T21:35:10.045Z,1.70
2018-05-07T21:37:40.860Z,2.03
2018-05-07T21:40:11.645Z,1.50
2018-05-07T21:42:42.453Z,1.53
2018-05-07T21:45:13.251Z,1.50
2018-05-07T21:47:44.028Z,1.60
2018-05-07T21:50:14.813Z,2.10
2018-05-07T21:52:45.591Z,1.80
2018-05-07T21:55:16.427Z,2.30
2018-05-07T21:57:47.193Z,2.20
2018-05-07T22:00:17.989Z,1.80
2018-05-07T22:02:48.771Z,1.73
2018-05-07T22:05:19.572Z,1.70
2018-05-07T22:07:50.411Z,1.67
2018-05-07T22:10:21.211Z,2.07
2018-05-07T22:12:52.137Z,2.40
2018-05-07T22:15:23.021Z,1.50
2018-05-07T22:17:53.812Z,1.60
2018-05-07T22:20:24.601Z,1.70
2018-05-07T22:22:55.405Z,1.37
2018-05-07T22:25:26.359Z,1.87
2018-05-07T22:27:57.138Z,1.67
2018-05-07T22:30:27.967Z,1.70
2018-05-07T22:32:58.763Z,1.77
2018-05-07T22:38:07.425Z,1.43
2018-05-07T22:40:38.250Z,5.10
2018-05-07T22:43:11.233Z,2.10
2018-05-07T22:45:42.233Z,2.63
2018-05-07T22:48:13.021Z,1.77
2018-05-07T22:50:43.870Z,2.10
2018-05-07T22:53:14.643Z,1.87
2018-05-07T22:55:45.444Z,1.90
2018-05-07T22:58:16.227Z,1.30
2018-05-07T23:00:47.118Z,2.13
2018-05-07T23:03:17.811Z,1.50
2018-05-07T23:05:48.723Z,2.07
2018-05-07T23:08:19.503Z,1.50
2018-05-07T23:10:50.363Z,1.97
2018-05-07T23:13:21.145Z,1.60
2018-05-07T23:15:51.918Z,1.90
2018-05-07T23:18:22.695Z,1.83
2018-05-07T23:20:53.524Z,1.60
2018-05-07T23:23:24.292Z,2.00
2018-05-07T23:25:55.123Z,1.53
2018-05-07T23:28:25.979Z,1.87
2018-05-07T23:30:56.831Z,1.80
2018-05-07T23:33:27.622Z,1.77
2018-05-07T23:35:58.432Z,1.50
2018-05-07T23:38:29.214Z,1.73
2018-05-07T23:41:00.012Z,1.80
2018-05-07T23:43:30.792Z,1.73
2018-05-07T23:46:01.611Z,1.70
2018-05-07T23:48:32.426Z,1.90
2018-05-07T23:51:03.228Z,1.90
2018-05-07T23:53:34.004Z,1.90
2018-05-07T23:56:04.823Z,1.70
2018-05-07T23:58:35.635Z,1.83
